Freeport, Albertus Airport (KFEP)

NameAlbertus Airport
CityFreeport
CountryUnited States
ICAOKFEP
IATAFEP
Altitude262 m
CoordinatesGoogle Map
Live Air TrafficLiveATC.net
METARKFEP 201455Z AUTO 00000KT 5SM BR OVC008 03/03 A3004 RMK AO2 T00300028
2019-03-20 14:55:00 Wind: North (0°) 0 m/s - Visibility: 8046.7 m - Weather: Mist - Temperature: 3 °C - Dew point: 3 °C - Humidity: 100% - Pressure: 1017.27 hPa
Statistics

The table below shows the detailed information of all flights to/from Freeport, Albertus Airport (KFEP).

Ident Aircraft Coming fromFrom Going toTo Owner nameOwnerSpotted durationDurationDate
N3210U - C182 - Aerolineas Mas Aerolineas Mas N3210U WREN 182 C182 Freeport, United States (KFEP) KFEP
4 km
, United States (KUNU) KUNU
151 km
Haas Todd Haas Todd 00:11:42 00:11:42 Sat, 16 Mar 2019 20:22:39 +0000 16/3/2019 8:22 pm
Sat, 16 Mar 2019 20:34:21 +0000 16/3/2019 8:34 pm
N3210U - C182 - Aerolineas Mas Aerolineas Mas N3210U WREN 182 C182 Freeport, United States (KFEP) KFEP
57 km
, United States (KUNU) KUNU
176 km
Haas Todd Haas Todd 00:14:02 00:14:02 Sat, 16 Mar 2019 15:11:57 +0000 16/3/2019 3:11 pm
Sat, 16 Mar 2019 15:25:59 +0000 16/3/2019 3:25 pm
N3210U - C182 - Aerolineas Mas Aerolineas Mas N3210U WREN 182 C182 Freeport, United States (KFEP) KFEP
24 km
, United States (KUNU) KUNU
129 km
Haas Todd Haas Todd 00:30:30 00:30:30 Tue, 12 Mar 2019 20:20:49 +0000 12/3/2019 8:20 pm
Tue, 12 Mar 2019 20:51:19 +0000 12/3/2019 8:51 pm